createdAt,value
2024-02-19T00:00:06.986Z,6.13
2024-02-19T00:00:29.826Z,6.68
2024-02-19T00:00:56.937Z,6.65
2024-02-19T00:01:20.207Z,6.85
2024-02-19T00:01:43.522Z,6.70
2024-02-19T00:02:06.461Z,6.72
2024-02-19T00:02:29.329Z,6.53
2024-02-19T00:02:52.376Z,6.38
2024-02-19T00:03:16.262Z,6.45
2024-02-19T00:03:39.125Z,6.80
2024-02-19T00:04:02.013Z,6.72
2024-02-19T00:04:25.113Z,6.30
2024-02-19T00:04:48.086Z,6.60
2024-02-19T00:05:11.101Z,6.50
2024-02-19T00:05:34.022Z,6.30
2024-02-19T00:05:56.922Z,5.80
2024-02-19T00:06:19.822Z,6.40
2024-02-19T00:06:42.841Z,6.70
2024-02-19T00:07:06.218Z,6.55
2024-02-19T00:07:29.321Z,6.35
2024-02-19T00:07:52.336Z,6.13
2024-02-19T00:08:15.366Z,6.28
2024-02-19T00:08:38.284Z,6.95
2024-02-19T00:09:01.174Z,6.05
2024-02-19T00:09:24.063Z,6.10
2024-02-19T00:09:46.973Z,5.93
2024-02-19T00:10:10.472Z,6.35
2024-02-19T00:10:33.336Z,6.68
2024-02-19T00:10:56.590Z,6.57
2024-02-19T00:11:20.231Z,6.55
2024-02-19T00:11:43.141Z,6.30
2024-02-19T00:12:06.973Z,6.50
2024-02-19T00:12:29.878Z,6.50
2024-02-19T00:12:52.822Z,6.47
2024-02-19T00:13:15.905Z,6.95
2024-02-19T00:13:39.261Z,6.82
2024-02-19T00:14:02.212Z,6.47
2024-02-19T00:14:25.023Z,6.38
2024-02-19T00:14:47.778Z,6.32
2024-02-19T00:15:11.090Z,6.30
2024-02-19T00:15:33.979Z,6.63
2024-02-19T00:15:58.380Z,6.78
2024-02-19T00:16:21.369Z,6.45
2024-02-19T00:16:44.324Z,6.55
2024-02-19T00:17:07.234Z,6.43
2024-02-19T00:17:30.125Z,6.70
2024-02-19T00:17:53.063Z,6.70
2024-02-19T00:18:16.174Z,6.20
2024-02-19T00:18:39.344Z,6.80
2024-02-19T00:19:02.689Z,6.72
2024-02-19T00:19:25.720Z,6.80
2024-02-19T00:19:49.033Z,6.45
2024-02-19T00:20:12.840Z,6.47
2024-02-19T00:20:35.865Z,6.47
2024-02-19T00:20:58.728Z,5.97
2024-02-19T00:21:21.598Z,5.90
2024-02-19T00:21:44.581Z,6.20
2024-02-19T00:22:09.868Z,6.25
2024-02-19T00:22:33.072Z,6.50
2024-02-19T00:22:55.988Z,6.03
2024-02-19T00:23:18.840Z,6.35
2024-02-19T00:23:41.654Z,6.75
2024-02-19T00:24:05.011Z,6.18
2024-02-19T00:24:27.949Z,6.47
2024-02-19T00:24:51.535Z,6.50
2024-02-19T00:25:14.483Z,6.35
2024-02-19T00:25:37.504Z,6.38
2024-02-19T00:26:02.146Z,6.75
2024-02-19T00:26:25.034Z,6.68
2024-02-19T00:26:47.901Z,6.45
2024-02-19T00:27:10.761Z,6.63
2024-02-19T00:27:33.629Z,6.85
2024-02-19T00:27:56.550Z,6.65
2024-02-19T00:28:19.443Z,6.72
2024-02-19T00:28:43.442Z,6.93
2024-02-19T00:29:06.346Z,6.40
2024-02-19T00:29:29.200Z,6.43
2024-02-19T00:29:52.018Z,6.88
2024-02-19T00:30:15.236Z,6.65
2024-02-19T00:30:38.199Z,6.20
2024-02-19T00:31:02.695Z,6.90
2024-02-19T00:31:25.683Z,6.65
2024-02-19T00:31:49.283Z,6.78
2024-02-19T00:32:12.235Z,6.70
2024-02-19T00:32:35.162Z,6.60
2024-02-19T00:32:58.058Z,6.68
2024-02-19T00:33:21.726Z,6.53
2024-02-19T00:33:44.811Z,6.53
2024-02-19T00:34:08.145Z,6.55
2024-02-19T00:34:31.146Z,6.47
2024-02-19T00:34:54.040Z,6.32
2024-02-19T00:35:16.956Z,6.15
2024-02-19T00:35:39.830Z,6.55
2024-02-19T00:36:03.126Z,6.30
2024-02-19T00:36:26.348Z,6.82
2024-02-19T00:36:49.214Z,6.68
2024-02-19T00:37:12.253Z,6.65
2024-02-19T00:37:35.109Z,6.43
2024-02-19T00:37:57.969Z,6.88
2024-02-19T00:38:20.805Z,7.43
2024-02-19T00:38:43.637Z,7.70
2024-02-19T00:39:06.628Z,7.57
2024-02-19T00:39:29.515Z,7.85
2024-02-19T00:39:52.365Z,7.60
2024-02-19T00:40:15.645Z,7.70
2024-02-19T00:40:39.382Z,7.05
2024-02-19T00:41:04.848Z,8.25
2024-02-19T00:41:28.594Z,9.57
2024-02-19T00:41:51.877Z,9.60
2024-02-19T00:42:14.699Z,9.82
2024-02-19T00:42:37.753Z,9.27
2024-02-19T00:43:01.410Z,9.23
2024-02-19T00:43:24.391Z,8.73
2024-02-19T00:43:47.317Z,8.95
2024-02-19T00:44:10.253Z,9.18
2024-02-19T00:44:33.117Z,8.60
2024-02-19T00:44:56.015Z,9.02
2024-02-19T00:45:18.931Z,9.50
2024-02-19T00:45:41.821Z,9.35
2024-02-19T00:46:06.292Z,9.05
2024-02-19T00:46:29.163Z,9.15
2024-02-19T00:46:51.990Z,9.45
2024-02-19T00:47:14.763Z,10.02
2024-02-19T00:47:37.811Z,9.57
2024-02-19T00:48:01.054Z,8.75
2024-02-19T00:48:23.996Z,9.13
2024-02-19T00:48:47.045Z,9.25
2024-02-19T00:49:10.250Z,9.07
2024-02-19T00:49:33.325Z,9.90
2024-02-19T00:49:56.829Z,9.40
2024-02-19T00:50:19.899Z,9.55
2024-02-19T00:50:42.828Z,10.13
2024-02-19T00:51:06.129Z,9.18
2024-02-19T00:51:28.965Z,9.27
2024-02-19T00:51:51.737Z,10.00
2024-02-19T00:52:14.731Z,10.05
2024-02-19T00:52:40.311Z,10.18
2024-02-19T00:53:03.264Z,9.60
2024-02-19T00:53:26.122Z,10.60
2024-02-19T00:53:48.964Z,10.57
2024-02-19T00:54:13.102Z,10.48
2024-02-19T00:54:36.014Z,10.88
2024-02-19T00:54:59.192Z,11.27
2024-02-19T00:55:22.536Z,11.13
2024-02-19T00:55:45.513Z,11.10
2024-02-19T00:56:08.340Z,10.80
2024-02-19T00:56:31.229Z,10.48
2024-02-19T00:56:53.956Z,10.48
2024-02-19T00:57:16.842Z,10.43
2024-02-19T00:57:39.825Z,10.80
2024-02-19T00:58:02.775Z,9.80
2024-02-19T00:58:25.562Z,10.10
2024-02-19T00:58:49.084Z,10.90
2024-02-19T00:59:12.535Z,10.60
2024-02-19T00:59:35.403Z,9.73
2024-02-19T00:59:58.354Z,10.07
2024-02-19T01:00:21.401Z,10.10
2024-02-19T01:00:44.350Z,10.10
2024-02-19T01:01:09.090Z,10.48
2024-02-19T01:01:32.351Z,10.57
2024-02-19T01:01:55.299Z,10.55
2024-02-19T01:02:18.289Z,10.15
2024-02-19T01:02:42.139Z,10.82
2024-02-19T01:03:05.394Z,11.05
2024-02-19T01:03:28.376Z,10.60
2024-02-19T01:03:51.474Z,10.60
2024-02-19T01:04:14.499Z,10.55
2024-02-19T01:04:37.598Z,11.10
2024-02-19T01:05:01.511Z,10.98
2024-02-19T01:05:26.088Z,11.23
2024-02-19T01:05:48.986Z,11.15
2024-02-19T01:06:12.197Z,11.15
2024-02-19T01:06:35.199Z,11.25
2024-02-19T01:06:58.334Z,11.10
2024-02-19T01:07:21.911Z,10.80
2024-02-19T01:07:44.994Z,10.68
2024-02-19T01:08:08.156Z,11.48
2024-02-19T01:08:30.996Z,11.40
2024-02-19T01:08:53.871Z,10.80
2024-02-19T01:09:17.652Z,10.43
2024-02-19T01:09:40.636Z,11.20
2024-02-19T01:10:03.686Z,11.60
2024-02-19T01:10:26.691Z,11.10
2024-02-19T01:10:51.167Z,11.18
2024-02-19T01:11:14.176Z,11.20
2024-02-19T01:11:37.166Z,11.30
2024-02-19T01:11:59.987Z,10.95
2024-02-19T01:12:23.270Z,10.88
2024-02-19T01:12:46.252Z,10.32
2024-02-19T01:13:09.160Z,10.55
2024-02-19T01:13:32.107Z,10.13
2024-02-19T01:13:54.939Z,10.15
2024-02-19T01:14:17.814Z,10.00
2024-02-19T01:14:40.667Z,9.63
2024-02-19T01:15:03.922Z,9.75
2024-02-19T01:15:29.269Z,9.75
2024-02-19T01:15:52.141Z,9.77
2024-02-19T01:16:16.626Z,9.95
2024-02-19T01:16:39.600Z,9.93
2024-02-19T01:17:02.776Z,9.88
2024-02-19T01:17:25.688Z,10.57
2024-02-19T01:17:49.782Z,10.55
2024-02-19T01:18:12.727Z,9.93
2024-02-19T01:18:35.753Z,10.13
2024-02-19T01:18:58.870Z,10.23
2024-02-19T01:19:22.637Z,10.05
2024-02-19T01:19:46.400Z,10.20
2024-02-19T01:20:11.552Z,10.95
2024-02-19T01:20:34.450Z,9.75
2024-02-19T01:20:57.295Z,10.25
2024-02-19T01:21:20.471Z,9.98
2024-02-19T01:21:44.301Z,9.93
2024-02-19T01:22:07.299Z,10.70
2024-02-19T01:22:30.221Z,9.52
2024-02-19T01:22:53.066Z,9.55
2024-02-19T01:23:18.401Z,9.45
2024-02-19T01:23:41.288Z,9.32
2024-02-19T01:24:04.220Z,9.48
2024-02-19T01:24:27.478Z,9.38
2024-02-19T01:24:50.396Z,9.88
2024-02-19T01:25:13.774Z,9.30
2024-02-19T01:25:36.875Z,9.77
2024-02-19T01:25:59.744Z,10.15
2024-02-19T01:26:22.621Z,10.15
2024-02-19T01:26:46.999Z,9.73
2024-02-19T01:27:09.894Z,9.77
2024-02-19T01:27:32.863Z,9.75
2024-02-19T01:27:55.722Z,9.35
2024-02-19T01:28:18.661Z,8.80
2024-02-19T01:28:41.541Z,9.43
2024-02-19T01:29:04.477Z,9.55
2024-02-19T01:29:27.447Z,9.38
2024-02-19T01:29:50.370Z,8.90
2024-02-19T01:30:13.654Z,9.10
2024-02-19T01:30:36.487Z,9.30
2024-02-19T01:30:59.417Z,9.50
2024-02-19T01:31:24.074Z,9.25
2024-02-19T01:31:46.866Z,9.73
2024-02-19T01:32:09.817Z,10.13
2024-02-19T01:32:32.765Z,9.63
2024-02-19T01:32:55.651Z,9.68
2024-02-19T01:33:18.586Z,10.07
2024-02-19T01:33:41.791Z,9.02
2024-02-19T01:34:05.815Z,9.25
2024-02-19T01:34:31.201Z,9.82
2024-02-19T01:34:54.361Z,9.82
2024-02-19T01:35:18.009Z,9.15
2024-02-19T01:35:40.853Z,10.02
2024-02-19T01:36:04.121Z,9.73
2024-02-19T01:36:28.144Z,9.35
2024-02-19T01:36:51.019Z,10.13
2024-02-19T01:37:13.983Z,9.95
2024-02-19T01:37:36.925Z,10.10
2024-02-19T01:37:59.776Z,10.02
2024-02-19T01:38:23.322Z,10.73
2024-02-19T01:38:46.201Z,10.65
2024-02-19T01:39:09.187Z,10.43
2024-02-19T01:39:32.032Z,10.18
2024-02-19T01:39:54.908Z,10.18
2024-02-19T01:40:18.548Z,10.40
2024-02-19T01:40:41.516Z,10.68
2024-02-19T01:41:04.453Z,10.63
2024-02-19T01:41:27.320Z,10.55
2024-02-19T01:41:50.206Z,11.00
2024-02-19T01:42:13.867Z,10.52
2024-02-19T01:42:36.710Z,10.55
2024-02-19T01:43:02.689Z,9.93
2024-02-19T01:43:25.679Z,10.20
2024-02-19T01:43:48.512Z,10.48
2024-02-19T01:44:11.409Z,10.68
2024-02-19T01:44:38.150Z,10.50
2024-02-19T01:45:01.253Z,10.43
2024-02-19T01:45:27.339Z,9.95
2024-02-19T01:45:50.757Z,10.30
2024-02-19T01:46:16.761Z,10.00
2024-02-19T01:46:42.154Z,9.80
2024-02-19T01:47:05.232Z,10.55
2024-02-19T01:47:28.010Z,10.13
2024-02-19T01:47:51.019Z,10.20
2024-02-19T01:48:14.990Z,9.95
2024-02-19T01:48:38.120Z,9.90
2024-02-19T01:49:01.122Z,9.68
2024-02-19T01:49:24.117Z,10.02
2024-02-19T01:49:47.138Z,10.23
2024-02-19T01:50:10.620Z,10.45
2024-02-19T01:50:34.066Z,10.60
2024-02-19T01:50:56.882Z,11.48
2024-02-19T01:51:20.888Z,10.38
2024-02-19T01:51:43.857Z,10.02
2024-02-19T01:52:07.345Z,10.40
2024-02-19T01:52:30.262Z,10.82
2024-02-19T01:52:53.701Z,10.25
2024-02-19T01:53:16.480Z,10.80
2024-02-19T01:53:39.381Z,11.30
2024-02-19T01:54:02.239Z,10.63
2024-02-19T01:54:25.201Z,10.68
2024-02-19T01:54:48.079Z,10.73
2024-02-19T01:55:11.141Z,10.70
2024-02-19T01:55:34.286Z,10.48
2024-02-19T01:55:57.114Z,11.15
2024-02-19T01:56:20.065Z,10.43
2024-02-19T01:56:42.925Z,10.25
2024-02-19T01:57:06.187Z,10.32
2024-02-19T01:57:28.976Z,10.52
2024-02-19T01:57:53.008Z,10.85
2024-02-19T01:58:15.975Z,10.00
2024-02-19T01:58:38.836Z,10.52
2024-02-19T01:59:01.742Z,11.05
2024-02-19T01:59:24.779Z,10.98
2024-02-19T01:59:49.079Z,10.90
2024-02-19T02:00:15.359Z,11.20
2024-02-19T02:00:38.526Z,11.25
2024-02-19T02:01:01.521Z,10.93
2024-02-19T02:01:24.686Z,11.02
2024-02-19T02:01:49.296Z,10.90
2024-02-19T02:02:12.161Z,11.23
2024-02-19T02:02:35.083Z,11.65
2024-02-19T02:02:57.973Z,11.50
2024-02-19T02:03:21.910Z,11.05
2024-02-19T02:03:45.540Z,11.00
2024-02-19T02:04:08.551Z,11.48
2024-02-19T02:04:31.765Z,10.88
2024-02-19T02:04:54.806Z,10.77
2024-02-19T02:05:17.770Z,11.68
2024-02-19T02:05:40.766Z,11.68
2024-02-19T02:06:03.750Z,11.18
2024-02-19T02:06:26.605Z,11.25
2024-02-19T02:06:49.581Z,11.95
2024-02-19T02:07:12.539Z,11.43
2024-02-19T02:07:35.462Z,11.73
2024-02-19T02:07:58.701Z,12.13
2024-02-19T02:08:21.764Z,11.82
2024-02-19T02:08:44.679Z,11.57
2024-02-19T02:09:08.775Z,11.30
2024-02-19T02:09:31.715Z,11.57
2024-02-19T02:09:54.804Z,11.98
2024-02-19T02:10:19.563Z,12.23
2024-02-19T02:10:42.568Z,12.07
2024-02-19T02:11:05.616Z,12.63
2024-02-19T02:11:28.564Z,13.02
2024-02-19T02:11:51.504Z,12.32
2024-02-19T02:12:14.361Z,12.88
2024-02-19T02:12:37.325Z,13.15
2024-02-19T02:13:00.293Z,12.40
2024-02-19T02:13:23.806Z,12.27
2024-02-19T02:13:47.085Z,12.45
2024-02-19T02:14:09.958Z,12.23
2024-02-19T02:14:33.178Z,12.20
2024-02-19T02:14:56.046Z,11.68
2024-02-19T02:15:19.226Z,12.30
2024-02-19T02:15:42.033Z,12.30
2024-02-19T02:16:06.013Z,11.98
2024-02-19T02:16:30.436Z,11.73
2024-02-19T02:16:54.877Z,11.90
2024-02-19T02:17:17.802Z,11.70
2024-02-19T02:17:45.639Z,11.48
2024-02-19T02:18:08.815Z,11.05
2024-02-19T02:18:31.867Z,11.65
2024-02-19T02:18:55.635Z,11.55
2024-02-19T02:19:18.878Z,11.48
2024-02-19T02:19:43.037Z,11.68
2024-02-19T02:20:07.424Z,12.27
2024-02-19T02:20:32.807Z,11.50
2024-02-19T02:20:55.807Z,11.00
2024-02-19T02:21:18.836Z,11.13
2024-02-19T02:21:43.078Z,11.60
2024-02-19T02:22:06.192Z,11.23
2024-02-19T02:22:29.038Z,11.07
2024-02-19T02:22:51.894Z,11.13
2024-02-19T02:23:15.120Z,10.77
2024-02-19T02:23:37.888Z,10.85
2024-02-19T02:24:00.697Z,10.77
2024-02-19T02:24:23.520Z,11.50
2024-02-19T02:24:46.430Z,11.48
2024-02-19T02:25:09.923Z,11.00
2024-02-19T02:25:34.921Z,11.27
2024-02-19T02:25:57.876Z,11.15
2024-02-19T02:26:20.764Z,11.30
2024-02-19T02:26:45.044Z,11.07
2024-02-19T02:27:08.047Z,11.02
2024-02-19T02:27:30.863Z,10.57
2024-02-19T02:27:53.699Z,11.07
2024-02-19T02:28:16.712Z,10.80
2024-02-19T02:28:39.706Z,10.70
2024-02-19T02:29:02.545Z,11.00
2024-02-19T02:29:25.392Z,11.10
2024-02-19T02:29:48.538Z,10.95
2024-02-19T02:30:13.171Z,10.82
2024-02-19T02:30:36.114Z,11.10
2024-02-19T02:30:59.078Z,10.95
2024-02-19T02:31:22.126Z,11.27
2024-02-19T02:31:44.978Z,10.90
2024-02-19T02:32:08.375Z,10.52
2024-02-19T02:32:31.631Z,10.63
2024-02-19T02:32:57.117Z,10.57
2024-02-19T02:33:20.386Z,10.60
2024-02-19T02:33:43.556Z,11.07
2024-02-19T02:34:06.941Z,10.93
2024-02-19T02:34:30.116Z,10.55
2024-02-19T02:34:53.015Z,10.50
2024-02-19T02:35:16.430Z,10.23
2024-02-19T02:35:39.297Z,10.48
2024-02-19T02:36:02.177Z,10.80
2024-02-19T02:36:25.009Z,10.55
2024-02-19T02:36:47.925Z,10.57
2024-02-19T02:37:10.881Z,10.43
2024-02-19T02:37:33.801Z,10.15
2024-02-19T02:37:56.679Z,9.75
2024-02-19T02:38:19.774Z,10.38
2024-02-19T02:38:42.780Z,10.48
2024-02-19T02:39:05.795Z,10.63
2024-02-19T02:39:28.720Z,10.23
2024-02-19T02:39:51.712Z,10.45
2024-02-19T02:40:14.772Z,10.00
2024-02-19T02:40:37.801Z,10.00
2024-02-19T02:41:00.706Z,10.75
2024-02-19T02:41:23.538Z,10.38
2024-02-19T02:41:49.023Z,10.00
2024-02-19T02:42:11.876Z,9.93
2024-02-19T02:42:34.792Z,10.45
2024-02-19T02:42:58.231Z,10.65
2024-02-19T02:43:21.199Z,10.48
2024-02-19T02:43:44.106Z,10.27
2024-02-19T02:44:06.933Z,10.60
2024-02-19T02:44:29.809Z,10.07
2024-02-19T02:44:52.936Z,10.20
2024-02-19T02:45:16.046Z,10.07
2024-02-19T02:45:38.912Z,10.52
2024-02-19T02:46:02.602Z,10.68
2024-02-19T02:46:25.599Z,9.95
2024-02-19T02:46:48.523Z,10.43
2024-02-19T02:47:11.342Z,10.80
2024-02-19T02:47:34.632Z,10.80
2024-02-19T02:47:57.504Z,10.40
2024-02-19T02:48:20.494Z,10.40
2024-02-19T02:48:43.852Z,10.63
2024-02-19T02:49:06.983Z,10.02
2024-02-19T02:49:30.049Z,10.38
2024-02-19T02:49:53.143Z,10.20
2024-02-19T02:50:16.199Z,10.52
2024-02-19T02:50:39.051Z,10.82
2024-02-19T02:51:01.827Z,11.27
2024-02-19T02:51:24.703Z,10.85
2024-02-19T02:51:47.526Z,10.80
2024-02-19T02:52:10.390Z,10.68
2024-02-19T02:52:33.333Z,10.98
2024-02-19T02:52:56.261Z,10.68
2024-02-19T02:53:19.101Z,10.50
2024-02-19T02:53:42.028Z,10.82
2024-02-19T02:54:04.858Z,11.07
2024-02-19T02:54:27.725Z,10.57
2024-02-19T02:54:50.545Z,10.18
2024-02-19T02:55:13.506Z,10.20
2024-02-19T02:55:36.471Z,10.50
2024-02-19T02:55:59.298Z,9.82
2024-02-19T02:56:22.333Z,10.00
2024-02-19T02:56:45.163Z,10.73
2024-02-19T02:57:09.410Z,10.45
2024-02-19T02:57:32.340Z,10.13
2024-02-19T02:57:55.189Z,10.23
2024-02-19T02:58:18.175Z,10.32
2024-02-19T02:58:41.047Z,10.30
2024-02-19T02:59:03.902Z,10.20
2024-02-19T02:59:26.766Z,10.57
2024-02-19T02:59:49.734Z,10.60
2024-02-19T03:00:13.430Z,10.35
2024-02-19T03:00:37.122Z,10.18
2024-02-19T03:01:00.131Z,9.65
2024-02-19T03:01:26.838Z,10.48
2024-02-19T03:01:49.989Z,10.70
2024-02-19T03:02:12.976Z,10.40
2024-02-19T03:02:35.830Z,10.73
2024-02-19T03:02:58.728Z,10.60
2024-02-19T03:03:21.681Z,10.13
2024-02-19T03:03:44.739Z,10.40
2024-02-19T03:04:07.686Z,10.18
2024-02-19T03:04:30.691Z,10.32
2024-02-19T03:04:53.756Z,10.35
2024-02-19T03:05:17.083Z,10.00
2024-02-19T03:05:40.390Z,10.00
2024-02-19T03:06:04.335Z,10.18
2024-02-19T03:06:27.384Z,10.07
2024-02-19T03:06:50.639Z,10.68
2024-02-19T03:07:13.669Z,10.65
2024-02-19T03:07:36.994Z,10.13
2024-02-19T03:08:00.186Z,10.13
2024-02-19T03:08:23.348Z,10.13
2024-02-19T03:08:46.991Z,10.93
2024-02-19T03:09:10.138Z,10.43
2024-02-19T03:09:33.194Z,10.77
2024-02-19T03:09:57.670Z,10.80
2024-02-19T03:10:21.109Z,10.82
2024-02-19T03:10:44.688Z,10.90
2024-02-19T03:11:07.903Z,10.82
2024-02-19T03:11:32.423Z,11.10
2024-02-19T03:11:55.549Z,10.57
2024-02-19T03:12:20.026Z,10.93
2024-02-19T03:12:43.037Z,10.77
2024-02-19T03:13:06.551Z,11.10
2024-02-19T03:13:29.484Z,10.65
2024-02-19T03:13:52.348Z,10.82
2024-02-19T03:14:15.899Z,10.38
2024-02-19T03:14:38.938Z,10.52
2024-02-19T03:15:01.812Z,10.88
2024-02-19T03:15:24.959Z,11.05
2024-02-19T03:15:47.782Z,10.80
2024-02-19T03:16:10.711Z,11.10
2024-02-19T03:16:35.057Z,11.02
2024-02-19T03:16:57.975Z,10.73
2024-02-19T03:17:20.859Z,10.70
2024-02-19T03:17:43.731Z,10.32
2024-02-19T03:18:07.375Z,10.43
2024-02-19T03:18:30.324Z,10.55
2024-02-19T03:18:54.822Z,10.68
2024-02-19T03:19:18.331Z,10.90
2024-02-19T03:19:42.999Z,10.18
2024-02-19T03:20:13.348Z,10.75
2024-02-19T03:20:36.149Z,10.32
2024-02-19T03:20:59.056Z,10.88
2024-02-19T03:21:22.162Z,10.30
2024-02-19T03:21:44.969Z,10.40
2024-02-19T03:22:07.936Z,10.20
2024-02-19T03:22:30.839Z,10.35
2024-02-19T03:22:54.481Z,10.35
2024-02-19T03:23:18.194Z,10.77
2024-02-19T03:23:41.652Z,10.57
2024-02-19T03:24:04.937Z,10.10
2024-02-19T03:24:27.831Z,10.30
2024-02-19T03:24:50.921Z,10.05
2024-02-19T03:25:13.924Z,10.10
2024-02-19T03:25:36.857Z,10.10
2024-02-19T03:25:59.834Z,10.27
2024-02-19T03:26:59.131Z,9.68
2024-02-19T03:27:23.778Z,9.85
2024-02-19T03:27:47.345Z,9.27
2024-02-19T03:28:10.226Z,9.13
2024-02-19T03:28:34.471Z,9.23
2024-02-19T03:28:58.823Z,9.52
2024-02-19T03:29:21.838Z,10.35
2024-02-19T03:29:44.646Z,10.40
2024-02-19T03:30:09.182Z,10.20
2024-02-19T03:30:32.532Z,9.27
2024-02-19T03:30:55.510Z,9.40
2024-02-19T03:31:18.440Z,9.40
2024-02-19T03:31:41.340Z,9.60
2024-02-19T03:32:04.685Z,9.43
2024-02-19T03:32:27.518Z,9.60
2024-02-19T03:32:50.564Z,9.85
2024-02-19T03:33:13.594Z,10.38
2024-02-19T03:33:36.702Z,10.60
2024-02-19T03:33:59.813Z,10.20
2024-02-19T03:34:22.813Z,10.48
2024-02-19T03:34:45.907Z,10.15
2024-02-19T03:35:08.926Z,9.75
2024-02-19T03:35:31.744Z,9.80
2024-02-19T03:35:54.590Z,9.80
2024-02-19T03:36:17.801Z,9.95
2024-02-19T03:36:43.426Z,9.40
2024-02-19T03:37:06.517Z,10.02
2024-02-19T03:37:29.456Z,9.65
2024-02-19T03:37:52.467Z,9.57
2024-02-19T03:38:15.312Z,8.88
2024-02-19T03:38:38.211Z,9.30
2024-02-19T03:39:01.326Z,9.65
2024-02-19T03:39:24.227Z,9.77
2024-02-19T03:39:47.097Z,10.15
2024-02-19T03:40:12.181Z,9.90
2024-02-19T03:40:35.101Z,10.07
2024-02-19T03:40:57.879Z,9.50
2024-02-19T03:41:20.812Z,9.98
2024-02-19T03:41:43.567Z,9.80
2024-02-19T03:42:07.291Z,9.27
2024-02-19T03:42:31.595Z,9.82
2024-02-19T03:42:54.398Z,9.25
2024-02-19T03:43:18.367Z,9.70
2024-02-19T03:43:41.258Z,9.95
2024-02-19T03:44:04.211Z,10.27
2024-02-19T03:44:27.038Z,9.27
2024-02-19T03:44:49.861Z,9.15
2024-02-19T03:45:12.626Z,9.65
2024-02-19T03:45:35.945Z,10.13
2024-02-19T03:45:59.113Z,9.50
2024-02-19T03:46:22.012Z,9.90
2024-02-19T03:46:44.892Z,10.18
2024-02-19T03:47:08.521Z,10.00
2024-02-19T03:47:31.410Z,10.02
2024-02-19T03:47:54.357Z,10.20
2024-02-19T03:48:17.404Z,10.38
2024-02-19T03:48:40.518Z,10.75
2024-02-19T03:49:04.298Z,10.30
2024-02-19T03:49:27.347Z,10.27
2024-02-19T03:49:50.263Z,10.25
2024-02-19T03:50:13.150Z,10.10
2024-02-19T03:50:36.006Z,9.80
2024-02-19T03:50:58.854Z,9.68
2024-02-19T03:51:21.775Z,10.27
2024-02-19T03:51:44.998Z,10.02
2024-02-19T03:52:08.000Z,10.30
2024-02-19T03:52:31.065Z,10.00
2024-02-19T03:52:54.031Z,10.20
2024-02-19T03:53:16.832Z,10.20
2024-02-19T03:53:39.675Z,10.75
2024-02-19T03:54:02.898Z,10.57
2024-02-19T03:54:26.205Z,9.90
2024-02-19T03:54:49.592Z,10.07
2024-02-19T03:55:12.717Z,10.15
2024-02-19T03:55:35.631Z,10.48
2024-02-19T03:55:59.815Z,10.23
2024-02-19T03:56:22.762Z,9.82
2024-02-19T03:56:45.631Z,10.75
2024-02-19T03:57:08.545Z,10.05
2024-02-19T03:57:32.881Z,10.48
2024-02-19T03:57:55.772Z,10.07
2024-02-19T03:58:18.614Z,10.20
2024-02-19T03:58:41.545Z,9.82
2024-02-19T03:59:04.405Z,9.90
2024-02-19T03:59:27.560Z,9.95
2024-02-19T03:59:50.994Z,10.23
2024-02-19T04:00:15.126Z,9.60
2024-02-19T04:00:38.202Z,10.07
2024-02-19T04:01:01.225Z,10.10
2024-02-19T04:01:24.258Z,10.20
2024-02-19T04:01:47.163Z,10.07
2024-02-19T04:02:10.281Z,9.57
2024-02-19T04:02:33.515Z,9.88
2024-02-19T04:02:56.346Z,9.98
2024-02-19T04:03:19.248Z,9.68
2024-02-19T04:03:42.178Z,10.02
2024-02-19T04:04:05.448Z,10.57
2024-02-19T04:04:28.460Z,9.85
2024-02-19T04:04:51.615Z,9.98
2024-02-19T04:05:14.711Z,9.95
2024-02-19T04:05:37.643Z,9.73
2024-02-19T04:06:00.567Z,9.65
2024-02-19T04:06:23.407Z,9.75
2024-02-19T04:06:46.483Z,9.80
2024-02-19T04:07:09.674Z,9.95
2024-02-19T04:07:32.503Z,9.65
2024-02-19T04:07:55.402Z,9.80
2024-02-19T04:08:18.443Z,9.65
2024-02-19T04:08:41.490Z,10.20
2024-02-19T04:09:04.491Z,9.65
2024-02-19T04:09:27.405Z,9.75
2024-02-19T04:09:50.344Z,9.63
2024-02-19T04:10:14.002Z,9.43
2024-02-19T04:10:37.358Z,9.70
2024-02-19T04:11:00.237Z,9.52
2024-02-19T04:11:23.182Z,9.60
2024-02-19T04:11:46.091Z,9.48
2024-02-19T04:12:09.337Z,9.00
2024-02-19T04:12:33.645Z,9.23
2024-02-19T04:12:56.558Z,9.23
2024-02-19T04:13:19.628Z,9.55
2024-02-19T04:13:42.653Z,9.75
2024-02-19T04:14:05.441Z,9.38
2024-02-19T04:14:28.390Z,9.13
2024-02-19T04:14:51.365Z,9.40
2024-02-19T04:15:15.117Z,9.30
2024-02-19T04:15:38.040Z,9.10
2024-02-19T04:16:01.078Z,9.55
2024-02-19T04:16:24.044Z,9.52
2024-02-19T04:16:46.976Z,9.80
2024-02-19T04:17:09.817Z,9.43
2024-02-19T04:17:34.552Z,9.63
2024-02-19T04:17:57.494Z,9.05
2024-02-19T04:18:20.494Z,8.73
2024-02-19T04:18:43.702Z,9.13
2024-02-19T04:19:06.969Z,9.27
2024-02-19T04:19:30.507Z,9.00
2024-02-19T04:19:57.317Z,9.15
2024-02-19T04:20:20.531Z,10.15
2024-02-19T04:20:43.731Z,10.68
2024-02-19T04:21:06.811Z,11.32
2024-02-19T04:21:29.730Z,11.23
2024-02-19T04:21:52.589Z,10.48
2024-02-19T04:22:15.602Z,10.55
2024-02-19T04:22:38.529Z,10.75
2024-02-19T04:23:01.435Z,10.35
2024-02-19T04:23:24.384Z,9.95
2024-02-19T04:23:47.245Z,10.25
2024-02-19T04:24:10.075Z,10.27
2024-02-19T04:24:33.724Z,10.07
2024-02-19T04:24:56.709Z,9.60
2024-02-19T04:25:20.343Z,9.75
2024-02-19T04:25:43.421Z,9.60
2024-02-19T04:26:06.290Z,9.75
2024-02-19T04:26:29.142Z,10.20
2024-02-19T04:26:52.056Z,9.90
2024-02-19T04:27:16.127Z,9.52
2024-02-19T04:27:40.568Z,10.00
2024-02-19T04:28:03.595Z,10.35
2024-02-19T04:28:26.538Z,10.63
2024-02-19T04:28:49.500Z,10.07
2024-02-19T04:29:12.426Z,10.20
2024-02-19T04:29:35.405Z,10.63
2024-02-19T04:29:58.304Z,9.52
2024-02-19T04:30:21.113Z,9.65
2024-02-19T04:30:44.035Z,9.82
2024-02-19T04:31:06.877Z,9.57
2024-02-19T04:31:29.817Z,9.77
2024-02-19T04:31:52.587Z,10.07
2024-02-19T04:32:16.282Z,10.30
2024-02-19T04:32:39.168Z,10.13
2024-02-19T04:33:02.270Z,9.93
2024-02-19T04:33:25.290Z,10.07
2024-02-19T04:33:48.330Z,10.13
2024-02-19T04:34:11.529Z,10.77
2024-02-19T04:34:38.327Z,10.45
2024-02-19T04:35:03.680Z,10.30
2024-02-19T04:35:26.877Z,9.82
2024-02-19T04:35:49.726Z,10.38
2024-02-19T04:36:12.623Z,9.77
2024-02-19T04:36:35.642Z,9.02
2024-02-19T04:36:58.541Z,10.27
2024-02-19T04:37:22.020Z,9.82
2024-02-19T04:37:44.841Z,10.27
2024-02-19T04:38:07.796Z,9.75
2024-02-19T04:38:30.596Z,9.90
2024-02-19T04:38:53.408Z,10.23
2024-02-19T04:39:16.292Z,9.88
2024-02-19T04:39:39.471Z,9.73
2024-02-19T04:40:03.500Z,9.75
2024-02-19T04:40:26.497Z,9.85
2024-02-19T04:40:49.379Z,10.85
2024-02-19T04:41:12.311Z,10.30
2024-02-19T04:41:35.266Z,10.13
2024-02-19T04:41:58.142Z,9.77
2024-02-19T04:42:21.018Z,10.13
2024-02-19T04:42:45.706Z,10.68
2024-02-19T04:43:08.650Z,10.07
2024-02-19T04:43:31.523Z,10.25
2024-02-19T04:43:54.435Z,10.00
2024-02-19T04:44:17.357Z,10.13
2024-02-19T04:44:40.861Z,9.90
2024-02-19T04:45:03.873Z,9.70
2024-02-19T04:45:26.837Z,9.70
2024-02-19T04:45:49.697Z,10.23
2024-02-19T04:46:13.324Z,10.57
2024-02-19T04:46:38.009Z,10.20
2024-02-19T04:47:00.852Z,10.18
2024-02-19T04:47:23.785Z,10.23
2024-02-19T04:47:46.665Z,9.90
2024-02-19T04:48:09.572Z,9.80
2024-02-19T04:48:36.404Z,10.00
2024-02-19T04:48:59.383Z,10.30
2024-02-19T04:49:22.309Z,10.02
2024-02-19T04:49:45.413Z,10.20
2024-02-19T04:50:09.936Z,10.18
2024-02-19T04:50:33.007Z,10.40
2024-02-19T04:50:56.545Z,10.10
2024-02-19T04:51:19.383Z,10.07
2024-02-19T04:51:42.195Z,10.18
2024-02-19T04:52:06.025Z,10.40
2024-02-19T04:52:28.998Z,10.50
2024-02-19T04:52:51.972Z,10.43
2024-02-19T04:53:19.571Z,10.27
2024-02-19T04:53:42.612Z,10.18
2024-02-19T04:54:05.599Z,10.32
2024-02-19T04:54:28.695Z,10.20
2024-02-19T04:54:51.920Z,10.50
2024-02-19T04:55:15.611Z,10.35
2024-02-19T04:55:38.722Z,10.50
2024-02-19T04:56:01.631Z,10.52
2024-02-19T04:56:24.492Z,10.02
2024-02-19T04:56:48.225Z,10.65
2024-02-19T04:57:11.043Z,10.48
2024-02-19T04:57:33.921Z,10.35
2024-02-19T04:57:58.369Z,10.43
2024-02-19T04:58:21.370Z,10.48
2024-02-19T04:58:44.353Z,10.73
2024-02-19T04:59:07.276Z,11.00
2024-02-19T04:59:31.265Z,10.98
2024-02-19T04:59:54.159Z,10.52
2024-02-19T05:00:17.605Z,10.90
2024-02-19T05:00:41.952Z,10.40
2024-02-19T05:01:05.250Z,9.40
2024-02-19T05:01:32.189Z,10.02
2024-02-19T05:01:56.013Z,10.30
2024-02-19T05:02:19.312Z,10.05
2024-02-19T05:02:42.154Z,10.38
2024-02-19T05:03:05.756Z,10.32
2024-02-19T05:03:28.606Z,10.85
2024-02-19T05:03:51.630Z,10.27